sensor_id;sensor_type;location;lat;lon;timestamp;P1;durP1;ratioP1;P2;durP2;ratioP2
69783;SDS011;57054;51.978;4.498;2023-05-07T00:00:08;15.82;;;14.10;;
69783;SDS011;57054;51.978;4.498;2023-05-07T00:02:34;16.13;;;13.73;;
69783;SDS011;57054;51.978;4.498;2023-05-07T00:05:01;15.98;;;14.13;;
69783;SDS011;57054;51.978;4.498;2023-05-07T00:07:27;16.55;;;14.02;;
69783;SDS011;57054;51.978;4.498;2023-05-07T00:09:53;19.48;;;13.52;;
69783;SDS011;57054;51.978;4.498;2023-05-07T00:12:18;15.70;;;13.15;;
69783;SDS011;57054;51.978;4.498;2023-05-07T00:14:44;14.50;;;12.52;;
69783;SDS011;57054;51.978;4.498;2023-05-07T00:17:09;15.57;;;13.63;;
69783;SDS011;57054;51.978;4.498;2023-05-07T00:19:35;16.80;;;13.30;;
69783;SDS011;57054;51.978;4.498;2023-05-07T00:22:00;15.27;;;12.90;;
69783;SDS011;57054;51.978;4.498;2023-05-07T00:24:25;16.38;;;13.15;;
69783;SDS011;57054;51.978;4.498;2023-05-07T00:26:51;15.75;;;13.90;;
69783;SDS011;57054;51.978;4.498;2023-05-07T00:29:17;17.08;;;13.27;;
69783;SDS011;57054;51.978;4.498;2023-05-07T00:31:43;17.85;;;14.15;;
69783;SDS011;57054;51.978;4.498;2023-05-07T00:34:08;16.08;;;14.20;;
69783;SDS011;57054;51.978;4.498;2023-05-07T00:36:33;20.02;;;15.98;;
69783;SDS011;57054;51.978;4.498;2023-05-07T00:38:59;18.02;;;14.57;;
69783;SDS011;57054;51.978;4.498;2023-05-07T00:41:27;19.70;;;16.20;;
69783;SDS011;57054;51.978;4.498;2023-05-07T00:43:52;20.45;;;15.65;;
69783;SDS011;57054;51.978;4.498;2023-05-07T00:46:19;18.27;;;15.63;;
69783;SDS011;57054;51.978;4.498;2023-05-07T00:48:47;18.02;;;15.43;;
69783;SDS011;57054;51.978;4.498;2023-05-07T00:51:14;17.90;;;15.63;;
69783;SDS011;57054;51.978;4.498;2023-05-07T00:53:40;19.25;;;15.65;;
69783;SDS011;57054;51.978;4.498;2023-05-07T00:56:06;18.02;;;15.60;;
69783;SDS011;57054;51.978;4.498;2023-05-07T00:58:32;16.88;;;14.52;;
69783;SDS011;57054;51.978;4.498;2023-05-07T01:04:20;18.20;;;15.00;;
69783;SDS011;57054;51.978;4.498;2023-05-07T01:06:45;16.83;;;14.48;;
69783;SDS011;57054;51.978;4.498;2023-05-07T01:09:11;16.17;;;14.30;;
69783;SDS011;57054;51.978;4.498;2023-05-07T01:11:38;15.32;;;13.63;;
69783;SDS011;57054;51.978;4.498;2023-05-07T01:14:04;15.55;;;13.52;;
69783;SDS011;57054;51.978;4.498;2023-05-07T01:16:30;15.02;;;13.43;;
69783;SDS011;57054;51.978;4.498;2023-05-07T01:18:57;15.35;;;13.60;;
69783;SDS011;57054;51.978;4.498;2023-05-07T01:21:25;16.23;;;13.88;;
69783;SDS011;57054;51.978;4.498;2023-05-07T01:23:51;14.48;;;12.95;;
69783;SDS011;57054;51.978;4.498;2023-05-07T01:26:18;16.45;;;14.10;;
69783;SDS011;57054;51.978;4.498;2023-05-07T01:28:44;17.77;;;14.27;;
69783;SDS011;57054;51.978;4.498;2023-05-07T01:31:10;14.77;;;13.07;;
69783;SDS011;57054;51.978;4.498;2023-05-07T01:33:38;13.98;;;11.75;;
69783;SDS011;57054;51.978;4.498;2023-05-07T01:36:06;16.00;;;13.18;;
69783;SDS011;57054;51.978;4.498;2023-05-07T01:38:33;16.92;;;14.50;;
69783;SDS011;57054;51.978;4.498;2023-05-07T01:41:01;14.52;;;12.98;;
69783;SDS011;57054;51.978;4.498;2023-05-07T01:43:27;18.17;;;14.65;;
69783;SDS011;57054;51.978;4.498;2023-05-07T01:45:54;14.98;;;13.38;;
69783;SDS011;57054;51.978;4.498;2023-05-07T01:48:19;15.73;;;13.10;;
69783;SDS011;57054;51.978;4.498;2023-05-07T01:50:45;15.68;;;13.85;;
69783;SDS011;57054;51.978;4.498;2023-05-07T01:53:11;13.48;;;11.98;;
69783;SDS011;57054;51.978;4.498;2023-05-07T01:55:37;17.95;;;14.20;;
69783;SDS011;57054;51.978;4.498;2023-05-07T01:58:02;16.77;;;13.52;;
69783;SDS011;57054;51.978;4.498;2023-05-07T02:00:28;17.08;;;13.80;;
69783;SDS011;57054;51.978;4.498;2023-05-07T02:02:54;15.52;;;13.93;;
69783;SDS011;57054;51.978;4.498;2023-05-07T02:05:19;21.42;;;15.82;;
69783;SDS011;57054;51.978;4.498;2023-05-07T02:07:45;14.40;;;12.88;;
69783;SDS011;57054;51.978;4.498;2023-05-07T02:10:10;18.05;;;14.63;;
69783;SDS011;57054;51.978;4.498;2023-05-07T02:12:35;17.27;;;14.98;;
69783;SDS011;57054;51.978;4.498;2023-05-07T02:15:01;19.45;;;15.82;;
69783;SDS011;57054;51.978;4.498;2023-05-07T02:17:27;20.65;;;16.83;;
69783;SDS011;57054;51.978;4.498;2023-05-07T02:19:52;16.00;;;14.30;;
69783;SDS011;57054;51.978;4.498;2023-05-07T02:22:18;15.27;;;13.68;;
69783;SDS011;57054;51.978;4.498;2023-05-07T02:24:43;15.38;;;12.80;;
69783;SDS011;57054;51.978;4.498;2023-05-07T02:27:09;15.32;;;13.73;;
69783;SDS011;57054;51.978;4.498;2023-05-07T02:29:35;20.55;;;16.88;;
69783;SDS011;57054;51.978;4.498;2023-05-07T02:32:00;19.25;;;15.00;;
69783;SDS011;57054;51.978;4.498;2023-05-07T02:34:26;15.05;;;13.43;;
69783;SDS011;57054;51.978;4.498;2023-05-07T02:36:51;16.42;;;13.35;;
69783;SDS011;57054;51.978;4.498;2023-05-07T02:39:17;15.48;;;13.88;;
69783;SDS011;57054;51.978;4.498;2023-05-07T02:41:42;15.75;;;14.18;;
69783;SDS011;57054;51.978;4.498;2023-05-07T02:44:07;16.77;;;13.30;;
69783;SDS011;57054;51.978;4.498;2023-05-07T02:46:34;15.73;;;13.98;;
69783;SDS011;57054;51.978;4.498;2023-05-07T02:48:59;18.95;;;15.23;;
69783;SDS011;57054;51.978;4.498;2023-05-07T02:51:25;17.52;;;15.73;;
69783;SDS011;57054;51.978;4.498;2023-05-07T02:53:51;15.82;;;13.93;;
69783;SDS011;57054;51.978;4.498;2023-05-07T02:56:16;14.05;;;12.65;;
69783;SDS011;57054;51.978;4.498;2023-05-07T02:58:41;18.50;;;16.55;;
69783;SDS011;57054;51.978;4.498;2023-05-07T03:01:07;15.90;;;14.27;;
69783;SDS011;57054;51.978;4.498;2023-05-07T03:03:33;18.25;;;16.35;;
69783;SDS011;57054;51.978;4.498;2023-05-07T03:05:58;17.80;;;15.45;;
69783;SDS011;57054;51.978;4.498;2023-05-07T03:08:24;15.75;;;14.20;;
69783;SDS011;57054;51.978;4.498;2023-05-07T03:10:50;15.98;;;14.38;;
69783;SDS011;57054;51.978;4.498;2023-05-07T03:13:15;18.50;;;15.13;;
69783;SDS011;57054;51.978;4.498;2023-05-07T03:15:41;15.70;;;14.10;;
69783;SDS011;57054;51.978;4.498;2023-05-07T03:18:06;13.75;;;12.38;;
69783;SDS011;57054;51.978;4.498;2023-05-07T03:20:32;16.85;;;15.15;;
69783;SDS011;57054;51.978;4.498;2023-05-07T03:22:57;15.30;;;13.80;;
69783;SDS011;57054;51.978;4.498;2023-05-07T03:25:23;14.50;;;13.10;;
69783;SDS011;57054;51.978;4.498;2023-05-07T03:27:48;16.13;;;14.43;;
69783;SDS011;57054;51.978;4.498;2023-05-07T03:30:14;13.75;;;12.52;;
69783;SDS011;57054;51.978;4.498;2023-05-07T03:32:39;13.93;;;12.63;;
69783;SDS011;57054;51.978;4.498;2023-05-07T03:35:05;14.60;;;13.20;;
69783;SDS011;57054;51.978;4.498;2023-05-07T03:37:30;15.07;;;13.43;;
69783;SDS011;57054;51.978;4.498;2023-05-07T03:39:56;16.20;;;14.48;;
69783;SDS011;57054;51.978;4.498;2023-05-07T03:42:21;17.95;;;15.93;;
69783;SDS011;57054;51.978;4.498;2023-05-07T03:44:47;15.32;;;13.73;;
69783;SDS011;57054;51.978;4.498;2023-05-07T03:47:12;17.63;;;15.52;;
69783;SDS011;57054;51.978;4.498;2023-05-07T03:49:38;18.60;;;15.10;;
69783;SDS011;57054;51.978;4.498;2023-05-07T03:52:04;14.63;;;13.07;;
69783;SDS011;57054;51.978;4.498;2023-05-07T03:54:30;17.55;;;15.70;;
69783;SDS011;57054;51.978;4.498;2023-05-07T03:56:56;16.17;;;13.50;;
69783;SDS011;57054;51.978;4.498;2023-05-07T03:59:21;14.13;;;12.75;;
69783;SDS011;57054;51.978;4.498;2023-05-07T04:01:47;15.80;;;14.20;;
69783;SDS011;57054;51.978;4.498;2023-05-07T04:04:13;15.77;;;14.02;;
69783;SDS011;57054;51.978;4.498;2023-05-07T04:06:39;13.38;;;12.07;;
69783;SDS011;57054;51.978;4.498;2023-05-07T04:09:04;12.90;;;11.75;;
69783;SDS011;57054;51.978;4.498;2023-05-07T04:11:30;13.90;;;12.68;;
69783;SDS011;57054;51.978;4.498;2023-05-07T04:13:55;12.68;;;11.35;;
69783;SDS011;57054;51.978;4.498;2023-05-07T04:16:21;12.75;;;11.35;;
69783;SDS011;57054;51.978;4.498;2023-05-07T04:18:46;16.42;;;14.73;;
69783;SDS011;57054;51.978;4.498;2023-05-07T04:21:18;14.60;;;13.10;;
69783;SDS011;57054;51.978;4.498;2023-05-07T04:23:45;13.40;;;12.00;;
69783;SDS011;57054;51.978;4.498;2023-05-07T04:26:12;13.48;;;12.13;;
69783;SDS011;57054;51.978;4.498;2023-05-07T04:28:38;16.65;;;14.18;;
69783;SDS011;57054;51.978;4.498;2023-05-07T04:31:04;13.60;;;12.30;;
69783;SDS011;57054;51.978;4.498;2023-05-07T04:33:30;16.45;;;14.02;;
69783;SDS011;57054;51.978;4.498;2023-05-07T04:35:56;12.45;;;11.20;;
69783;SDS011;57054;51.978;4.498;2023-05-07T04:38:22;12.00;;;11.00;;
69783;SDS011;57054;51.978;4.498;2023-05-07T04:40:48;13.02;;;11.73;;
69783;SDS011;57054;51.978;4.498;2023-05-07T04:43:14;11.38;;;10.30;;
69783;SDS011;57054;51.978;4.498;2023-05-07T04:45:39;10.38;;;9.57;;
69783;SDS011;57054;51.978;4.498;2023-05-07T04:48:06;11.18;;;10.10;;
69783;SDS011;57054;51.978;4.498;2023-05-07T04:50:32;10.60;;;9.57;;
69783;SDS011;57054;51.978;4.498;2023-05-07T04:52:57;11.07;;;10.18;;
69783;SDS011;57054;51.978;4.498;2023-05-07T04:55:23;11.02;;;10.00;;
69783;SDS011;57054;51.978;4.498;2023-05-07T04:57:48;10.07;;;9.32;;
69783;SDS011;57054;51.978;4.498;2023-05-07T05:00:14;10.27;;;9.48;;
69783;SDS011;57054;51.978;4.498;2023-05-07T05:02:40;9.80;;;9.00;;
69783;SDS011;57054;51.978;4.498;2023-05-07T05:05:06;10.52;;;9.75;;
69783;SDS011;57054;51.978;4.498;2023-05-07T05:07:32;10.32;;;9.52;;
69783;SDS011;57054;51.978;4.498;2023-05-07T05:09:57;10.18;;;9.27;;
69783;SDS011;57054;51.978;4.498;2023-05-07T05:12:23;9.98;;;9.10;;
69783;SDS011;57054;51.978;4.498;2023-05-07T05:14:48;10.10;;;9.20;;
69783;SDS011;57054;51.978;4.498;2023-05-07T05:17:13;10.93;;;9.90;;
69783;SDS011;57054;51.978;4.498;2023-05-07T05:19:39;13.40;;;11.98;;
69783;SDS011;57054;51.978;4.498;2023-05-07T05:22:04;11.35;;;10.25;;
69783;SDS011;57054;51.978;4.498;2023-05-07T05:24:30;11.82;;;10.77;;
69783;SDS011;57054;51.978;4.498;2023-05-07T05:26:56;10.77;;;9.77;;
69783;SDS011;57054;51.978;4.498;2023-05-07T05:29:22;15.45;;;12.68;;
69783;SDS011;57054;51.978;4.498;2023-05-07T05:31:47;48.08;;;27.63;;
69783;SDS011;57054;51.978;4.498;2023-05-07T05:34:13;129.10;;;59.95;;
69783;SDS011;57054;51.978;4.498;2023-05-07T05:36:38;73.40;;;34.50;;
69783;SDS011;57054;51.978;4.498;2023-05-07T05:39:04;85.45;;;40.15;;
69783;SDS011;57054;51.978;4.498;2023-05-07T05:41:29;66.40;;;34.67;;
69783;SDS011;57054;51.978;4.498;2023-05-07T05:43:55;72.95;;;36.50;;
69783;SDS011;57054;51.978;4.498;2023-05-07T05:46:21;67.75;;;33.97;;
69783;SDS011;57054;51.978;4.498;2023-05-07T05:48:46;68.68;;;34.15;;
69783;SDS011;57054;51.978;4.498;2023-05-07T05:51:11;43.75;;;30.30;;
69783;SDS011;57054;51.978;4.498;2023-05-07T05:53:37;48.80;;;29.40;;
69783;SDS011;57054;51.978;4.498;2023-05-07T05:56:02;39.53;;;24.15;;
69783;SDS011;57054;51.978;4.498;2023-05-07T05:58:28;36.90;;;25.17;;
69783;SDS011;57054;51.978;4.498;2023-05-07T06:00:53;56.45;;;27.23;;
69783;SDS011;57054;51.978;4.498;2023-05-07T06:03:19;36.13;;;20.15;;
69783;SDS011;57054;51.978;4.498;2023-05-07T06:05:44;34.65;;;20.58;;
69783;SDS011;57054;51.978;4.498;2023-05-07T06:08:10;33.20;;;20.05;;
69783;SDS011;57054;51.978;4.498;2023-05-07T06:10:36;29.38;;;18.30;;
69783;SDS011;57054;51.978;4.498;2023-05-07T06:13:02;22.60;;;15.10;;
69783;SDS011;57054;51.978;4.498;2023-05-07T06:15:27;25.25;;;18.88;;
69783;SDS011;57054;51.978;4.498;2023-05-07T06:17:53;20.90;;;16.85;;
69783;SDS011;57054;51.978;4.498;2023-05-07T06:20:20;18.95;;;14.85;;
69783;SDS011;57054;51.978;4.498;2023-05-07T06:22:46;24.70;;;16.55;;
69783;SDS011;57054;51.978;4.498;2023-05-07T06:25:11;17.55;;;13.75;;
69783;SDS011;57054;51.978;4.498;2023-05-07T06:27:37;17.02;;;14.85;;
69783;SDS011;57054;51.978;4.498;2023-05-07T06:30:04;22.58;;;15.40;;
69783;SDS011;57054;51.978;4.498;2023-05-07T06:32:30;21.20;;;15.95;;
69783;SDS011;57054;51.978;4.498;2023-05-07T06:34:56;18.48;;;15.23;;
69783;SDS011;57054;51.978;4.498;2023-05-07T06:37:21;19.17;;;13.90;;
69783;SDS011;57054;51.978;4.498;2023-05-07T06:39:46;20.27;;;15.55;;
69783;SDS011;57054;51.978;4.498;2023-05-07T06:42:12;17.05;;;15.27;;
69783;SDS011;57054;51.978;4.498;2023-05-07T06:44:37;19.85;;;16.00;;
69783;SDS011;57054;51.978;4.498;2023-05-07T06:47:03;17.80;;;15.00;;
69783;SDS011;57054;51.978;4.498;2023-05-07T06:49:28;21.90;;;17.20;;
69783;SDS011;57054;51.978;4.498;2023-05-07T06:51:54;19.65;;;16.38;;
69783;SDS011;57054;51.978;4.498;2023-05-07T06:54:19;19.45;;;16.05;;
69783;SDS011;57054;51.978;4.498;2023-05-07T06:56:45;20.63;;;16.63;;
69783;SDS011;57054;51.978;4.498;2023-05-07T06:59:11;19.38;;;16.85;;
69783;SDS011;57054;51.978;4.498;2023-05-07T07:01:36;20.10;;;17.13;;
69783;SDS011;57054;51.978;4.498;2023-05-07T07:04:02;21.27;;;17.83;;
69783;SDS011;57054;51.978;4.498;2023-05-07T07:06:28;18.70;;;16.05;;
69783;SDS011;57054;51.978;4.498;2023-05-07T07:08:53;25.83;;;18.50;;
69783;SDS011;57054;51.978;4.498;2023-05-07T07:11:18;18.27;;;16.27;;
69783;SDS011;57054;51.978;4.498;2023-05-07T07:13:44;23.40;;;18.27;;
69783;SDS011;57054;51.978;4.498;2023-05-07T07:16:09;17.20;;;15.35;;
69783;SDS011;57054;51.978;4.498;2023-05-07T07:18:35;22.08;;;17.15;;
69783;SDS011;57054;51.978;4.498;2023-05-07T07:21:00;22.30;;;17.70;;
69783;SDS011;57054;51.978;4.498;2023-05-07T07:23:26;22.13;;;17.02;;
69783;SDS011;57054;51.978;4.498;2023-05-07T07:25:51;20.23;;;16.38;;
69783;SDS011;57054;51.978;4.498;2023-05-07T07:28:17;18.98;;;15.75;;
69783;SDS011;57054;51.978;4.498;2023-05-07T07:30:42;17.98;;;15.90;;
69783;SDS011;57054;51.978;4.498;2023-05-07T07:33:08;18.83;;;16.17;;
69783;SDS011;57054;51.978;4.498;2023-05-07T07:35:33;19.02;;;15.77;;
69783;SDS011;57054;51.978;4.498;2023-05-07T07:37:59;21.17;;;16.02;;
69783;SDS011;57054;51.978;4.498;2023-05-07T07:40:25;15.18;;;13.55;;
69783;SDS011;57054;51.978;4.498;2023-05-07T07:42:51;15.90;;;14.15;;
69783;SDS011;57054;51.978;4.498;2023-05-07T07:45:17;14.63;;;13.20;;
69783;SDS011;57054;51.978;4.498;2023-05-07T07:47:42;18.05;;;15.20;;
69783;SDS011;57054;51.978;4.498;2023-05-07T07:50:08;16.08;;;13.27;;
69783;SDS011;57054;51.978;4.498;2023-05-07T07:52:34;14.95;;;13.32;;
69783;SDS011;57054;51.978;4.498;2023-05-07T07:54:59;17.25;;;13.65;;
69783;SDS011;57054;51.978;4.498;2023-05-07T07:57:25;17.20;;;14.35;;
69783;SDS011;57054;51.978;4.498;2023-05-07T07:59:50;15.70;;;14.02;;
69783;SDS011;57054;51.978;4.498;2023-05-07T08:02:16;17.10;;;13.05;;
69783;SDS011;57054;51.978;4.498;2023-05-07T08:04:42;15.98;;;14.15;;
69783;SDS011;57054;51.978;4.498;2023-05-07T08:07:11;16.25;;;14.05;;
69783;SDS011;57054;51.978;4.498;2023-05-07T08:09:37;14.70;;;13.20;;
69783;SDS011;57054;51.978;4.498;2023-05-07T08:12:03;14.20;;;12.80;;
69783;SDS011;57054;51.978;4.498;2023-05-07T08:14:29;16.52;;;12.95;;
69783;SDS011;57054;51.978;4.498;2023-05-07T08:16:54;16.35;;;13.75;;
69783;SDS011;57054;51.978;4.498;2023-05-07T08:19:20;16.58;;;12.85;;
69783;SDS011;57054;51.978;4.498;2023-05-07T08:21:46;18.17;;;12.85;;
69783;SDS011;57054;51.978;4.498;2023-05-07T08:24:13;15.48;;;12.35;;
69783;SDS011;57054;51.978;4.498;2023-05-07T08:26:41;19.50;;;12.38;;
69783;SDS011;57054;51.978;4.498;2023-05-07T08:29:07;14.68;;;12.55;;
69783;SDS011;57054;51.978;4.498;2023-05-07T08:31:33;16.90;;;12.73;;
69783;SDS011;57054;51.978;4.498;2023-05-07T08:33:58;18.63;;;13.48;;
69783;SDS011;57054;51.978;4.498;2023-05-07T08:36:24;13.65;;;11.63;;
69783;SDS011;57054;51.978;4.498;2023-05-07T08:38:50;12.52;;;11.23;;
69783;SDS011;57054;51.978;4.498;2023-05-07T08:41:16;19.38;;;14.10;;
69783;SDS011;57054;51.978;4.498;2023-05-07T08:43:42;18.15;;;14.35;;
69783;SDS011;57054;51.978;4.498;2023-05-07T08:46:13;16.77;;;15.07;;
69783;SDS011;57054;51.978;4.498;2023-05-07T08:48:42;21.65;;;14.57;;
69783;SDS011;57054;51.978;4.498;2023-05-07T08:51:08;19.02;;;14.68;;
69783;SDS011;57054;51.978;4.498;2023-05-07T08:53:40;21.10;;;15.50;;
69783;SDS011;57054;51.978;4.498;2023-05-07T08:56:06;17.20;;;15.43;;
69783;SDS011;57054;51.978;4.498;2023-05-07T08:58:33;21.67;;;16.92;;
69783;SDS011;57054;51.978;4.498;2023-05-07T09:00:59;19.88;;;16.33;;
69783;SDS011;57054;51.978;4.498;2023-05-07T09:03:32;19.17;;;15.93;;
69783;SDS011;57054;51.978;4.498;2023-05-07T09:05:57;16.88;;;15.20;;
69783;SDS011;57054;51.978;4.498;2023-05-07T09:08:26;21.13;;;16.55;;
69783;SDS011;57054;51.978;4.498;2023-05-07T09:10:52;19.00;;;15.20;;
69783;SDS011;57054;51.978;4.498;2023-05-07T09:13:18;18.80;;;15.90;;
69783;SDS011;57054;51.978;4.498;2023-05-07T09:15:44;18.95;;;16.30;;
69783;SDS011;57054;51.978;4.498;2023-05-07T09:18:10;21.75;;;17.58;;
69783;SDS011;57054;51.978;4.498;2023-05-07T09:20:37;18.08;;;16.05;;
69783;SDS011;57054;51.978;4.498;2023-05-07T09:23:03;18.02;;;14.95;;
69783;SDS011;57054;51.978;4.498;2023-05-07T09:25:29;20.52;;;13.65;;
69783;SDS011;57054;51.978;4.498;2023-05-07T09:27:56;14.05;;;12.18;;
69783;SDS011;57054;51.978;4.498;2023-05-07T09:30:21;14.00;;;12.27;;
69783;SDS011;57054;51.978;4.498;2023-05-07T09:32:46;15.68;;;12.63;;
69783;SDS011;57054;51.978;4.498;2023-05-07T09:35:15;16.42;;;13.85;;
69783;SDS011;57054;51.978;4.498;2023-05-07T09:37:46;14.73;;;13.20;;
69783;SDS011;57054;51.978;4.498;2023-05-07T09:40:30;15.35;;;13.68;;
69783;SDS011;57054;51.978;4.498;2023-05-07T09:42:56;16.33;;;14.20;;
69783;SDS011;57054;51.978;4.498;2023-05-07T09:45:33;19.13;;;13.95;;
69783;SDS011;57054;51.978;4.498;2023-05-07T09:47:58;18.30;;;14.20;;
69783;SDS011;57054;51.978;4.498;2023-05-07T09:50:28;13.57;;;12.18;;
69783;SDS011;57054;51.978;4.498;2023-05-07T09:52:55;12.63;;;11.35;;
69783;SDS011;57054;51.978;4.498;2023-05-07T09:55:22;13.23;;;11.15;;
69783;SDS011;57054;51.978;4.498;2023-05-07T09:57:50;12.68;;;11.30;;
69783;SDS011;57054;51.978;4.498;2023-05-07T10:00:18;15.35;;;10.82;;
69783;SDS011;57054;51.978;4.498;2023-05-07T10:02:45;14.18;;;11.85;;
69783;SDS011;57054;51.978;4.498;2023-05-07T10:05:17;16.77;;;11.80;;
69783;SDS011;57054;51.978;4.498;2023-05-07T10:07:45;15.10;;;11.43;;
69783;SDS011;57054;51.978;4.498;2023-05-07T10:10:11;12.35;;;10.23;;
69783;SDS011;57054;51.978;4.498;2023-05-07T10:12:37;13.68;;;11.50;;
69783;SDS011;57054;51.978;4.498;2023-05-07T10:15:05;15.32;;;10.88;;
69783;SDS011;57054;51.978;4.498;2023-05-07T10:17:32;13.95;;;9.82;;
69783;SDS011;57054;51.978;4.498;2023-05-07T10:20:02;10.98;;;9.10;;
69783;SDS011;57054;51.978;4.498;2023-05-07T10:22:29;13.55;;;9.98;;
69783;SDS011;57054;51.978;4.498;2023-05-07T10:24:57;10.10;;;8.70;;
69783;SDS011;57054;51.978;4.498;2023-05-07T10:27:27;9.20;;;8.13;;
69783;SDS011;57054;51.978;4.498;2023-05-07T10:30:05;9.27;;;7.32;;
69783;SDS011;57054;51.978;4.498;2023-05-07T10:32:53;6.95;;;6.25;;
69783;SDS011;57054;51.978;4.498;2023-05-07T10:35:22;7.82;;;6.82;;
69783;SDS011;57054;51.978;4.498;2023-05-07T10:37:51;7.50;;;6.60;;
69783;SDS011;57054;51.978;4.498;2023-05-07T10:40:16;6.70;;;6.00;;
69783;SDS011;57054;51.978;4.498;2023-05-07T10:42:55;7.07;;;6.05;;
69783;SDS011;57054;51.978;4.498;2023-05-07T10:45:21;6.93;;;5.63;;
69783;SDS011;57054;51.978;4.498;2023-05-07T10:48:20;8.25;;;6.10;;
69783;SDS011;57054;51.978;4.498;2023-05-07T10:50:42;6.25;;;5.53;;
69783;SDS011;57054;51.978;4.498;2023-05-07T10:55:48;9.02;;;6.82;;
69783;SDS011;57054;51.978;4.498;2023-05-07T10:58:29;12.70;;;7.10;;
69783;SDS011;57054;51.978;4.498;2023-05-07T11:01:00;11.50;;;5.75;;
69783;SDS011;57054;51.978;4.498;2023-05-07T11:03:27;6.88;;;5.63;;
69783;SDS011;57054;51.978;4.498;2023-05-07T11:06:08;8.93;;;6.53;;
69783;SDS011;57054;51.978;4.498;2023-05-07T11:17:20;8.35;;;6.85;;
69783;SDS011;57054;51.978;4.498;2023-05-07T11:19:49;10.20;;;7.78;;
69783;SDS011;57054;51.978;4.498;2023-05-07T11:25:00;9.20;;;7.20;;
69783;SDS011;57054;51.978;4.498;2023-05-07T11:27:27;10.55;;;8.77;;
69783;SDS011;57054;51.978;4.498;2023-05-07T11:29:54;11.52;;;9.05;;
69783;SDS011;57054;51.978;4.498;2023-05-07T11:32:22;11.38;;;9.10;;
69783;SDS011;57054;51.978;4.498;2023-05-07T11:34:55;13.98;;;9.90;;
69783;SDS011;57054;51.978;4.498;2023-05-07T11:37:21;11.68;;;10.48;;
69783;SDS011;57054;51.978;4.498;2023-05-07T11:39:48;11.73;;;10.20;;
69783;SDS011;57054;51.978;4.498;2023-05-07T11:42:30;12.02;;;9.90;;
69783;SDS011;57054;51.978;4.498;2023-05-07T11:44:57;12.00;;;10.50;;
69783;SDS011;57054;51.978;4.498;2023-05-07T11:47:23;12.70;;;9.30;;
69783;SDS011;57054;51.978;4.498;2023-05-07T11:49:51;13.93;;;9.27;;
69783;SDS011;57054;51.978;4.498;2023-05-07T11:52:18;10.60;;;7.43;;
69783;SDS011;57054;51.978;4.498;2023-05-07T11:57:20;9.93;;;7.25;;
69783;SDS011;57054;51.978;4.498;2023-05-07T11:59:46;8.00;;;6.50;;
69783;SDS011;57054;51.978;4.498;2023-05-07T12:02:16;10.20;;;8.13;;
69783;SDS011;57054;51.978;4.498;2023-05-07T12:04:42;11.88;;;8.75;;
69783;SDS011;57054;51.978;4.498;2023-05-07T12:07:11;8.32;;;6.72;;
69783;SDS011;57054;51.978;4.498;2023-05-07T12:09:38;10.18;;;7.38;;
69783;SDS011;57054;51.978;4.498;2023-05-07T12:12:04;6.10;;;5.60;;
69783;SDS011;57054;51.978;4.498;2023-05-07T12:14:29;13.85;;;8.85;;
69783;SDS011;57054;51.978;4.498;2023-05-07T12:16:55;9.98;;;7.70;;
69783;SDS011;57054;51.978;4.498;2023-05-07T12:19:21;10.02;;;7.47;;
69783;SDS011;57054;51.978;4.498;2023-05-07T12:21:47;7.70;;;6.90;;
69783;SDS011;57054;51.978;4.498;2023-05-07T12:24:14;11.77;;;8.45;;
69783;SDS011;57054;51.978;4.498;2023-05-07T12:26:40;9.00;;;7.72;;
69783;SDS011;57054;51.978;4.498;2023-05-07T12:29:05;10.98;;;8.18;;
69783;SDS011;57054;51.978;4.498;2023-05-07T12:31:31;10.35;;;8.15;;
69783;SDS011;57054;51.978;4.498;2023-05-07T12:33:57;10.88;;;8.13;;
69783;SDS011;57054;51.978;4.498;2023-05-07T12:36:22;10.65;;;8.60;;
69783;SDS011;57054;51.978;4.498;2023-05-07T12:38:49;11.27;;;7.85;;
69783;SDS011;57054;51.978;4.498;2023-05-07T12:41:14;16.17;;;10.18;;
69783;SDS011;57054;51.978;4.498;2023-05-07T12:43:41;15.35;;;10.55;;
69783;SDS011;57054;51.978;4.498;2023-05-07T12:48:36;17.08;;;11.30;;
69783;SDS011;57054;51.978;4.498;2023-05-07T12:51:02;15.75;;;10.18;;
69783;SDS011;57054;51.978;4.498;2023-05-07T12:53:28;17.13;;;11.82;;
69783;SDS011;57054;51.978;4.498;2023-05-07T12:55:57;15.45;;;11.93;;
69783;SDS011;57054;51.978;4.498;2023-05-07T12:58:28;16.65;;;11.70;;
69783;SDS011;57054;51.978;4.498;2023-05-07T13:00:55;18.33;;;11.88;;
69783;SDS011;57054;51.978;4.498;2023-05-07T13:03:33;15.95;;;12.05;;
69783;SDS011;57054;51.978;4.498;2023-05-07T13:06:07;14.52;;;11.15;;
69783;SDS011;57054;51.978;4.498;2023-05-07T13:08:37;20.42;;;13.10;;
69783;SDS011;57054;51.978;4.498;2023-05-07T13:11:07;18.67;;;12.85;;
69783;SDS011;57054;51.978;4.498;2023-05-07T13:13:35;20.58;;;13.10;;
69783;SDS011;57054;51.978;4.498;2023-05-07T13:16:02;13.80;;;12.07;;
69783;SDS011;57054;51.978;4.498;2023-05-07T13:18:32;16.10;;;12.48;;
69783;SDS011;57054;51.978;4.498;2023-05-07T13:20:58;16.75;;;12.23;;
69783;SDS011;57054;51.978;4.498;2023-05-07T13:23:25;16.30;;;11.90;;
69783;SDS011;57054;51.978;4.498;2023-05-07T13:25:50;17.20;;;12.93;;
69783;SDS011;57054;51.978;4.498;2023-05-07T13:28:18;15.63;;;13.65;;
69783;SDS011;57054;51.978;4.498;2023-05-07T13:30:45;18.27;;;12.85;;
69783;SDS011;57054;51.978;4.498;2023-05-07T13:33:10;17.70;;;13.02;;
69783;SDS011;57054;51.978;4.498;2023-05-07T13:35:36;16.02;;;12.07;;
69783;SDS011;57054;51.978;4.498;2023-05-07T13:38:01;14.27;;;11.18;;
69783;SDS011;57054;51.978;4.498;2023-05-07T13:40:27;15.90;;;11.45;;
69783;SDS011;57054;51.978;4.498;2023-05-07T13:42:53;20.67;;;12.52;;
69783;SDS011;57054;51.978;4.498;2023-05-07T13:45:18;18.13;;;12.30;;
69783;SDS011;57054;51.978;4.498;2023-05-07T13:47:45;17.08;;;12.02;;
69783;SDS011;57054;51.978;4.498;2023-05-07T13:50:11;17.23;;;11.10;;
69783;SDS011;57054;51.978;4.498;2023-05-07T13:52:38;12.40;;;11.02;;
69783;SDS011;57054;51.978;4.498;2023-05-07T13:55:05;18.98;;;12.02;;
69783;SDS011;57054;51.978;4.498;2023-05-07T13:57:31;17.45;;;12.48;;
69783;SDS011;57054;51.978;4.498;2023-05-07T13:59:56;17.92;;;12.02;;
69783;SDS011;57054;51.978;4.498;2023-05-07T14:02:22;15.60;;;11.43;;
69783;SDS011;57054;51.978;4.498;2023-05-07T14:04:47;18.58;;;12.45;;
69783;SDS011;57054;51.978;4.498;2023-05-07T14:07:12;16.77;;;11.50;;
69783;SDS011;57054;51.978;4.498;2023-05-07T14:09:38;18.67;;;12.00;;
69783;SDS011;57054;51.978;4.498;2023-05-07T14:12:03;19.23;;;13.45;;
69783;SDS011;57054;51.978;4.498;2023-05-07T14:14:29;17.42;;;13.80;;
69783;SDS011;57054;51.978;4.498;2023-05-07T14:16:55;20.75;;;14.25;;
69783;SDS011;57054;51.978;4.498;2023-05-07T14:19:20;22.73;;;15.20;;
69783;SDS011;57054;51.978;4.498;2023-05-07T14:21:47;20.50;;;14.68;;
69783;SDS011;57054;51.978;4.498;2023-05-07T14:24:13;19.80;;;14.38;;
69783;SDS011;57054;51.978;4.498;2023-05-07T14:26:38;21.63;;;14.90;;
69783;SDS011;57054;51.978;4.498;2023-05-07T14:29:04;20.90;;;14.32;;
69783;SDS011;57054;51.978;4.498;2023-05-07T14:31:29;28.52;;;17.88;;
69783;SDS011;57054;51.978;4.498;2023-05-07T14:33:55;21.10;;;16.75;;
69783;SDS011;57054;51.978;4.498;2023-05-07T14:36:22;26.65;;;17.73;;
69783;SDS011;57054;51.978;4.498;2023-05-07T14:38:51;23.40;;;15.93;;
69783;SDS011;57054;51.978;4.498;2023-05-07T14:41:17;21.77;;;17.50;;